createdAt,value
2022-12-23T00:00:10.230Z,31.23
2022-12-23T00:02:37.888Z,32.00
2022-12-23T00:05:05.746Z,30.30
2022-12-23T00:07:32.542Z,28.27
2022-12-23T00:09:59.110Z,24.40
2022-12-23T00:12:54.937Z,27.13
2022-12-23T00:15:21.500Z,31.88
2022-12-23T00:17:48.044Z,29.38
2022-12-23T00:20:15.294Z,27.83
2022-12-23T00:23:00.413Z,26.15
2022-12-23T00:25:42.393Z,29.20
2022-12-23T00:28:20.109Z,36.15
2022-12-23T00:30:48.813Z,29.60
2022-12-23T00:33:16.924Z,30.40
2022-12-23T00:35:44.603Z,29.02
2022-12-23T00:38:11.759Z,29.08
2022-12-23T00:40:57.042Z,27.35
2022-12-23T00:43:23.637Z,31.10
2022-12-23T00:45:50.208Z,26.92
2022-12-23T00:48:35.491Z,30.05
2022-12-23T00:51:02.094Z,27.35
2022-12-23T00:53:28.681Z,27.27
2022-12-23T00:55:55.241Z,31.20
2022-12-23T00:58:22.342Z,30.20
2022-12-23T01:01:07.534Z,31.67
2022-12-23T01:03:52.814Z,24.65
2022-12-23T01:06:19.461Z,26.60
2022-12-23T01:08:46.064Z,25.33
2022-12-23T01:11:13.012Z,26.55
2022-12-23T01:13:39.856Z,23.88
2022-12-23T01:16:16.885Z,28.65
2022-12-23T01:18:44.558Z,23.67
2022-12-23T01:21:11.377Z,20.75
2022-12-23T01:23:38.038Z,33.28
2022-12-23T01:26:06.159Z,27.55
2022-12-23T01:28:33.133Z,29.33
2022-12-23T01:31:00.866Z,28.15
2022-12-23T01:33:27.755Z,25.88
2022-12-23T01:36:02.222Z,25.00
2022-12-23T01:38:29.494Z,23.45
2022-12-23T01:40:56.636Z,23.85
2022-12-23T01:43:47.221Z,25.13
2022-12-23T01:46:14.278Z,24.90
2022-12-23T01:48:42.336Z,23.20
2022-12-23T01:51:13.170Z,17.48
2022-12-23T01:53:44.457Z,20.83
2022-12-23T01:56:17.775Z,21.20
2022-12-23T01:58:47.836Z,20.90
2022-12-23T02:01:33.152Z,25.88
2022-12-23T02:04:04.659Z,28.13
2022-12-23T02:06:53.445Z,27.63
2022-12-23T02:09:27.218Z,25.63
2022-12-23T02:15:04.068Z,27.20
2022-12-23T02:17:58.122Z,29.50
2022-12-23T02:20:42.631Z,30.55
2022-12-23T02:23:21.348Z,30.67
2022-12-23T02:26:01.965Z,31.33
2022-12-23T02:29:10.061Z,35.78
2022-12-23T02:31:49.196Z,28.40
2022-12-23T02:34:23.916Z,31.13
2022-12-23T02:37:05.015Z,26.80
2022-12-23T02:39:59.061Z,29.67
2022-12-23T02:42:36.665Z,27.63
2022-12-23T02:45:20.912Z,30.38
2022-12-23T02:47:56.277Z,32.45
2022-12-23T02:50:32.397Z,28.65
2022-12-23T02:53:01.887Z,26.70
2022-12-23T02:55:31.251Z,28.50
2022-12-23T02:58:00.997Z,29.85
2022-12-23T03:00:27.726Z,30.05
2022-12-23T03:02:54.639Z,25.88
2022-12-23T03:05:36.523Z,29.10
2022-12-23T03:08:05.188Z,25.27
2022-12-23T03:11:06.628Z,28.23
2022-12-23T03:14:01.125Z,28.70
2022-12-23T03:16:33.329Z,25.48
2022-12-23T03:19:15.144Z,22.17
2022-12-23T03:22:23.224Z,26.45
2022-12-23T03:25:13.448Z,21.45
2022-12-23T03:27:53.152Z,23.80
2022-12-23T03:30:21.134Z,27.85
2022-12-23T03:32:57.387Z,25.55
2022-12-23T03:35:27.277Z,22.33
2022-12-23T03:37:54.815Z,23.98
2022-12-23T03:40:34.021Z,23.55
2022-12-23T03:43:04.968Z,22.92
2022-12-23T03:45:40.403Z,24.65
2022-12-23T03:48:15.500Z,23.08
2022-12-23T03:50:43.222Z,21.65
2022-12-23T03:53:18.293Z,23.77
2022-12-23T03:56:05.006Z,24.02
2022-12-23T03:58:36.331Z,22.23
2022-12-23T04:01:36.798Z,22.52
2022-12-23T04:04:21.176Z,22.77
2022-12-23T04:07:05.329Z,22.30
2022-12-23T04:09:32.281Z,18.42
2022-12-23T04:11:59.106Z,23.20
2022-12-23T04:14:25.821Z,22.05
2022-12-23T04:16:55.317Z,20.63
2022-12-23T04:19:22.083Z,23.10
2022-12-23T04:21:48.611Z,22.60
2022-12-23T04:24:15.171Z,21.65
2022-12-23T04:26:41.744Z,23.00
2022-12-23T04:29:08.290Z,22.02
2022-12-23T04:31:34.959Z,23.38
2022-12-23T04:34:01.550Z,24.33
2022-12-23T04:36:28.077Z,24.85
2022-12-23T04:38:54.679Z,26.13
2022-12-23T04:41:21.261Z,25.00
2022-12-23T04:43:52.768Z,28.25
2022-12-23T04:46:20.095Z,25.02
2022-12-23T04:48:46.681Z,24.45
2022-12-23T04:51:13.288Z,23.50
2022-12-23T04:53:39.822Z,25.92
2022-12-23T04:56:06.381Z,25.85
2022-12-23T04:58:32.913Z,25.08
2022-12-23T05:01:07.701Z,24.40
2022-12-23T05:03:34.879Z,26.92
2022-12-23T05:06:01.838Z,26.58
2022-12-23T05:08:28.532Z,27.63
2022-12-23T05:10:55.814Z,23.20
2022-12-23T05:13:22.395Z,20.08
2022-12-23T05:15:50.636Z,21.25
2022-12-23T05:18:18.547Z,20.33
2022-12-23T05:20:45.444Z,18.42
2022-12-23T05:23:12.170Z,19.65
2022-12-23T05:25:39.505Z,19.92
2022-12-23T05:28:07.838Z,19.85
2022-12-23T05:30:34.386Z,18.85
2022-12-23T05:33:01.045Z,16.30
2022-12-23T05:35:27.755Z,18.92
2022-12-23T05:37:54.333Z,21.02
2022-12-23T05:40:23.723Z,16.42
2022-12-23T05:42:53.457Z,21.88
2022-12-23T05:45:20.703Z,19.27
2022-12-23T05:47:47.392Z,24.80
2022-12-23T05:50:14.277Z,22.25
2022-12-23T05:52:40.837Z,20.35
2022-12-23T05:55:08.047Z,31.27
2022-12-23T05:57:34.589Z,22.48
2022-12-23T06:00:01.156Z,24.42
2022-12-23T06:02:27.809Z,25.95
2022-12-23T06:04:54.509Z,21.25
2022-12-23T06:07:21.082Z,20.20
2022-12-23T06:09:47.640Z,24.42
2022-12-23T06:12:14.194Z,31.88
2022-12-23T06:14:40.769Z,28.42
2022-12-23T06:17:07.420Z,23.63
2022-12-23T06:19:33.997Z,28.45
2022-12-23T06:22:00.539Z,21.60
2022-12-23T06:24:27.071Z,23.88
2022-12-23T06:26:57.314Z,19.88
2022-12-23T06:29:24.873Z,25.45
2022-12-23T06:31:51.671Z,21.08
2022-12-23T06:34:18.405Z,20.60
2022-12-23T06:36:44.962Z,20.02
2022-12-23T06:39:11.672Z,18.98
2022-12-23T06:41:38.383Z,20.98
2022-12-23T06:44:05.236Z,21.10
2022-12-23T06:46:31.846Z,22.10
2022-12-23T06:48:58.422Z,24.15
2022-12-23T06:51:24.986Z,21.60
2022-12-23T06:53:51.537Z,22.20
2022-12-23T06:56:18.580Z,21.42
2022-12-23T06:58:45.124Z,24.25
2022-12-23T07:01:12.078Z,21.30
2022-12-23T07:03:38.766Z,20.92
2022-12-23T07:06:05.742Z,24.02
2022-12-23T07:08:32.301Z,25.67
2022-12-23T07:11:00.287Z,33.10
2022-12-23T07:13:26.918Z,20.38
2022-12-23T07:15:53.683Z,29.67
2022-12-23T07:18:22.632Z,28.00
2022-12-23T07:20:49.988Z,21.30
2022-12-23T07:23:16.592Z,27.05
2022-12-23T07:25:43.116Z,23.55
2022-12-23T07:28:09.664Z,24.05
2022-12-23T07:30:36.317Z,23.70
2022-12-23T07:33:02.943Z,22.05
2022-12-23T07:35:29.543Z,21.25
2022-12-23T07:37:56.316Z,25.92
2022-12-23T07:40:23.519Z,19.35
2022-12-23T07:42:51.008Z,22.55
2022-12-23T07:45:17.617Z,25.77
2022-12-23T07:47:44.221Z,31.70
2022-12-23T07:50:11.069Z,30.15
2022-12-23T07:52:37.980Z,26.80
2022-12-23T07:55:05.569Z,21.55
2022-12-23T07:57:37.737Z,23.40
2022-12-23T08:00:05.993Z,25.15
2022-12-23T08:02:39.116Z,25.42
2022-12-23T08:05:06.900Z,13.48
2022-12-23T08:07:33.583Z,15.63
2022-12-23T08:10:00.430Z,17.33
2022-12-23T08:12:27.158Z,15.77
2022-12-23T08:14:53.797Z,17.73
2022-12-23T08:17:23.410Z,17.23
2022-12-23T08:19:50.094Z,20.00
2022-12-23T08:22:17.007Z,17.90
2022-12-23T08:24:43.649Z,23.80
2022-12-23T08:27:10.882Z,21.23
2022-12-23T08:29:39.419Z,19.75
2022-12-23T08:32:06.963Z,21.25
2022-12-23T08:34:33.599Z,22.58
2022-12-23T08:37:00.227Z,19.35
2022-12-23T08:39:26.917Z,23.98
2022-12-23T08:41:53.793Z,17.85
2022-12-23T08:44:21.392Z,17.17
2022-12-23T08:46:48.200Z,23.27
2022-12-23T08:49:14.921Z,15.93
2022-12-23T08:51:42.456Z,18.40
2022-12-23T08:54:10.236Z,19.20
2022-12-23T08:56:40.469Z,17.48
2022-12-23T08:59:16.532Z,17.77
2022-12-23T09:01:45.181Z,20.60
2022-12-23T09:04:11.793Z,25.60
2022-12-23T09:06:43.452Z,20.40
2022-12-23T09:09:11.925Z,16.92
2022-12-23T09:11:39.029Z,19.48
2022-12-23T09:14:06.648Z,22.05
2022-12-23T09:16:33.258Z,22.38
2022-12-23T09:18:59.897Z,17.42
2022-12-23T09:21:26.475Z,13.02
2022-12-23T09:23:53.117Z,17.50
2022-12-23T09:26:22.715Z,12.30
2022-12-23T09:28:49.570Z,13.95
2022-12-23T09:31:16.528Z,13.18
2022-12-23T09:33:43.177Z,12.90
2022-12-23T09:36:09.817Z,12.05
2022-12-23T09:38:37.880Z,11.20
2022-12-23T09:41:24.089Z,13.90
2022-12-23T09:44:00.735Z,11.73
2022-12-23T09:46:28.727Z,12.73
2022-12-23T09:49:05.402Z,12.05
2022-12-23T09:51:32.882Z,12.85
2022-12-23T09:54:29.731Z,11.18
2022-12-23T09:57:00.778Z,10.23
2022-12-23T09:59:56.682Z,12.23
2022-12-23T10:02:36.561Z,11.07
2022-12-23T10:05:13.319Z,10.75
2022-12-23T10:07:49.576Z,12.10
2022-12-23T10:10:35.249Z,11.15
2022-12-23T10:13:04.586Z,10.05
2022-12-23T10:15:37.356Z,11.45
2022-12-23T10:18:10.504Z,12.00
2022-12-23T10:20:44.646Z,11.93
2022-12-23T10:23:17.201Z,11.60
2022-12-23T10:25:50.224Z,12.45
2022-12-23T10:28:16.881Z,12.40
2022-12-23T10:31:17.354Z,12.43
2022-12-23T10:33:46.547Z,13.60
2022-12-23T10:36:20.315Z,10.38
2022-12-23T10:39:07.415Z,12.77
2022-12-23T10:41:39.124Z,13.35
2022-12-23T10:44:39.074Z,11.65
2022-12-23T10:47:39.276Z,13.18
2022-12-23T10:50:47.580Z,11.55
2022-12-23T10:53:30.029Z,11.90
2022-12-23T10:55:57.262Z,11.18
2022-12-23T10:58:24.004Z,10.05
2022-12-23T11:01:16.140Z,11.18
2022-12-23T11:04:09.113Z,10.55
2022-12-23T11:06:39.771Z,11.45
2022-12-23T11:09:07.189Z,11.10
2022-12-23T11:11:59.640Z,8.55
2022-12-23T11:14:34.030Z,8.70
2022-12-23T11:17:00.794Z,10.93
2022-12-23T11:19:27.552Z,9.25
2022-12-23T11:21:57.343Z,9.40
2022-12-23T11:24:25.678Z,9.30
2022-12-23T11:27:06.397Z,9.75
2022-12-23T11:29:35.739Z,8.93
2022-12-23T11:32:04.002Z,7.68
2022-12-23T11:34:37.371Z,9.55
2022-12-23T11:37:07.438Z,9.27
2022-12-23T11:39:36.684Z,10.02
2022-12-23T11:42:15.895Z,9.32
2022-12-23T11:44:45.339Z,9.32
2022-12-23T11:47:41.068Z,7.75
2022-12-23T11:50:35.539Z,10.30
2022-12-23T11:53:15.130Z,9.38
2022-12-23T11:55:48.749Z,9.52
2022-12-23T11:58:19.958Z,9.90
2022-12-23T12:00:58.663Z,9.23
2022-12-23T12:03:31.753Z,8.57
2022-12-23T12:06:01.356Z,9.25
2022-12-23T12:08:35.710Z,7.97
2022-12-23T12:11:14.605Z,8.43
2022-12-23T12:13:42.477Z,8.00
2022-12-23T12:16:31.056Z,8.15
2022-12-23T12:19:02.007Z,8.35
2022-12-23T12:21:30.843Z,7.85
2022-12-23T12:24:22.292Z,7.50
2022-12-23T12:26:52.880Z,8.15
2022-12-23T12:29:36.763Z,7.25
2022-12-23T12:32:06.640Z,8.45
2022-12-23T12:34:49.194Z,7.97
2022-12-23T12:37:20.256Z,8.55
2022-12-23T12:39:56.007Z,7.07
2022-12-23T12:42:25.545Z,7.93
2022-12-23T12:45:15.075Z,8.40
2022-12-23T12:48:00.117Z,8.23
2022-12-23T12:50:34.732Z,8.75
2022-12-23T12:53:09.400Z,9.02
2022-12-23T12:55:39.615Z,8.40
2022-12-23T12:58:12.302Z,8.60
2022-12-23T13:00:54.722Z,9.35
2022-12-23T13:03:32.454Z,8.82
2022-12-23T13:06:39.578Z,9.55
2022-12-23T13:09:12.012Z,8.85
2022-12-23T13:12:14.935Z,8.90
2022-12-23T13:14:54.881Z,9.50
2022-12-23T13:17:34.085Z,9.90
2022-12-23T13:20:15.921Z,8.85
2022-12-23T13:22:43.718Z,7.60
2022-12-23T13:25:45.671Z,7.43
2022-12-23T13:28:25.078Z,7.68
2022-12-23T13:31:16.559Z,8.82
2022-12-23T13:33:52.330Z,8.57
2022-12-23T13:36:41.788Z,7.93
2022-12-23T13:39:28.078Z,8.80
2022-12-23T13:42:01.390Z,8.75
2022-12-23T13:44:34.862Z,8.70
2022-12-23T13:47:13.148Z,8.07
2022-12-23T13:50:07.096Z,9.52
2022-12-23T13:52:50.152Z,9.20
2022-12-23T13:55:52.804Z,8.30
2022-12-23T13:58:22.130Z,9.02
2022-12-23T14:00:59.009Z,8.25
2022-12-23T14:03:33.315Z,9.80
2022-12-23T14:06:18.848Z,10.82
2022-12-23T14:08:46.171Z,10.93
2022-12-23T14:11:26.667Z,10.50
2022-12-23T14:13:57.247Z,9.98
2022-12-23T14:17:02.213Z,11.68
2022-12-23T14:20:06.424Z,10.50
2022-12-23T14:22:57.229Z,10.38
2022-12-23T14:25:35.930Z,9.55
2022-12-23T14:28:09.423Z,11.00
2022-12-23T14:30:38.721Z,10.00
2022-12-23T14:33:14.545Z,9.15
2022-12-23T14:35:42.851Z,10.30
2022-12-23T14:38:09.727Z,8.98
2022-12-23T14:40:39.460Z,9.35
2022-12-23T14:43:25.671Z,8.48
2022-12-23T14:45:53.736Z,8.50
2022-12-23T14:48:41.999Z,9.70
2022-12-23T14:51:08.455Z,9.32
2022-12-23T14:53:37.100Z,7.97
2022-12-23T14:56:09.838Z,9.05
2022-12-23T14:59:17.839Z,7.87
2022-12-23T15:01:49.419Z,7.50
2022-12-23T15:04:19.484Z,6.70
2022-12-23T15:06:52.178Z,7.00
2022-12-23T15:09:24.003Z,6.85
2022-12-23T15:11:51.812Z,6.43
2022-12-23T15:14:30.802Z,5.65
2022-12-23T15:16:57.684Z,6.78
2022-12-23T15:19:26.508Z,6.60
2022-12-23T15:22:17.317Z,5.68
2022-12-23T15:24:49.149Z,5.97
2022-12-23T15:27:27.423Z,5.85
2022-12-23T15:29:55.281Z,6.10
2022-12-23T15:32:23.779Z,6.05
2022-12-23T15:34:51.801Z,6.13
2022-12-23T15:37:22.410Z,5.78
2022-12-23T15:39:54.143Z,5.43
2022-12-23T15:42:31.697Z,6.45
2022-12-23T15:44:58.555Z,8.57
2022-12-23T15:47:29.321Z,10.32
2022-12-23T15:50:00.247Z,11.55
2022-12-23T15:52:31.389Z,7.28
2022-12-23T15:55:22.259Z,10.20
2022-12-23T15:57:50.783Z,8.85
2022-12-23T16:00:25.185Z,11.27
2022-12-23T16:03:02.955Z,10.23
2022-12-23T16:05:33.497Z,11.30
2022-12-23T16:08:16.057Z,11.05
2022-12-23T16:10:55.538Z,9.40
2022-12-23T16:13:22.060Z,10.20
2022-12-23T16:15:48.692Z,10.65
2022-12-23T16:18:28.514Z,9.57
2022-12-23T16:20:57.987Z,8.93
2022-12-23T16:23:29.920Z,10.20
2022-12-23T16:25:59.334Z,9.70
2022-12-23T16:28:39.455Z,9.90
2022-12-23T16:31:07.976Z,9.15
2022-12-23T16:33:38.530Z,9.93
2022-12-23T16:36:27.011Z,9.13
2022-12-23T16:39:01.031Z,9.60
2022-12-23T16:41:27.630Z,8.77
2022-12-23T16:43:54.282Z,9.02
2022-12-23T16:46:22.889Z,8.50
2022-12-23T16:48:58.417Z,8.32
2022-12-23T16:51:25.836Z,9.00
2022-12-23T16:53:55.579Z,8.18
2022-12-23T16:56:24.314Z,8.77
2022-12-23T16:58:50.874Z,8.93
2022-12-23T17:01:22.775Z,8.80
2022-12-23T17:03:49.870Z,9.13
2022-12-23T17:06:16.868Z,9.65
2022-12-23T17:08:43.516Z,9.55
2022-12-23T17:11:19.167Z,8.38
2022-12-23T17:13:45.922Z,7.63
2022-12-23T17:16:15.370Z,9.30
2022-12-23T17:18:41.980Z,9.90
2022-12-23T17:21:17.215Z,8.23
2022-12-23T17:23:43.757Z,8.65
2022-12-23T17:26:10.287Z,8.85
2022-12-23T17:28:36.830Z,8.75
2022-12-23T17:31:08.672Z,9.43
2022-12-23T17:33:39.128Z,9.70
2022-12-23T17:36:06.114Z,9.07
2022-12-23T17:38:32.812Z,8.85
2022-12-23T17:40:59.438Z,9.55
2022-12-23T17:43:26.333Z,10.68
2022-12-23T17:45:52.953Z,9.95
2022-12-23T17:48:23.111Z,10.15
2022-12-23T17:50:51.876Z,9.30
2022-12-23T17:53:19.776Z,10.50
2022-12-23T17:55:46.662Z,9.45
2022-12-23T17:58:14.250Z,10.10
2022-12-23T18:00:41.024Z,10.68
2022-12-23T18:03:20.383Z,9.77
2022-12-23T18:05:46.989Z,10.38
2022-12-23T18:08:13.539Z,9.82
2022-12-23T18:10:41.003Z,11.27
2022-12-23T18:13:12.817Z,9.77
2022-12-23T18:15:41.073Z,12.27
2022-12-23T18:18:22.229Z,11.50
2022-12-23T18:20:54.881Z,10.95
2022-12-23T18:23:25.241Z,11.27
2022-12-23T18:25:52.049Z,10.10
2022-12-23T18:28:18.607Z,10.05
2022-12-23T18:30:45.326Z,10.10
2022-12-23T18:33:12.813Z,10.23
2022-12-23T18:35:43.978Z,9.88
2022-12-23T18:38:11.241Z,9.45
2022-12-23T18:40:39.006Z,9.88
2022-12-23T18:43:05.931Z,10.57
2022-12-23T18:45:39.990Z,9.77
2022-12-23T18:48:08.295Z,10.25
2022-12-23T18:50:36.798Z,11.52
2022-12-23T18:53:03.658Z,11.18
2022-12-23T18:55:30.836Z,11.05
2022-12-23T18:57:59.215Z,11.20
2022-12-23T19:00:30.503Z,13.13
2022-12-23T19:02:57.421Z,15.52
2022-12-23T19:05:28.883Z,17.45
2022-12-23T19:07:57.022Z,14.60
2022-12-23T19:10:25.995Z,12.88
2022-12-23T19:12:53.025Z,16.77
2022-12-23T19:15:20.500Z,19.98
2022-12-23T19:17:47.404Z,18.73
2022-12-23T19:20:15.672Z,13.65
2022-12-23T19:22:42.795Z,13.27
2022-12-23T19:25:12.527Z,13.45
2022-12-23T19:27:40.016Z,11.68
2022-12-23T19:30:08.953Z,12.75
2022-12-23T19:32:35.505Z,13.02
2022-12-23T19:35:02.179Z,12.88
2022-12-23T19:37:28.779Z,15.02
2022-12-23T19:39:55.333Z,13.18
2022-12-23T19:42:21.879Z,15.45
2022-12-23T19:44:48.484Z,14.25
2022-12-23T19:47:15.068Z,14.57
2022-12-23T19:49:41.679Z,12.65
2022-12-23T19:52:08.222Z,12.52
2022-12-23T19:54:34.766Z,13.20
2022-12-23T19:57:01.396Z,13.57
2022-12-23T19:59:28.004Z,14.75
2022-12-23T20:01:54.633Z,14.43
2022-12-23T20:04:23.709Z,13.77
2022-12-23T20:06:51.024Z,13.75
2022-12-23T20:09:17.998Z,14.52
2022-12-23T20:11:46.532Z,13.60
2022-12-23T20:14:15.732Z,14.80
2022-12-23T20:16:42.836Z,15.55
2022-12-23T20:19:10.028Z,16.70
2022-12-23T20:21:37.480Z,14.30
2022-12-23T20:24:05.421Z,14.93
2022-12-23T20:26:31.974Z,13.70
2022-12-23T20:28:59.278Z,16.63
2022-12-23T20:31:30.966Z,15.85
2022-12-23T20:33:57.915Z,14.73
2022-12-23T20:36:27.261Z,17.23
2022-12-23T20:38:53.898Z,14.25
2022-12-23T20:41:22.589Z,16.20
2022-12-23T20:44:23.340Z,18.33
2022-12-23T20:46:36.279Z,17.02
2022-12-23T20:49:02.889Z,16.75
2022-12-23T20:51:29.526Z,19.00
2022-12-23T20:53:59.750Z,19.17
2022-12-23T20:56:27.754Z,14.43
2022-12-23T20:58:54.599Z,16.23
2022-12-23T21:01:23.220Z,12.80
2022-12-23T21:03:50.263Z,13.95
2022-12-23T21:06:17.195Z,13.07
2022-12-23T21:08:43.804Z,14.50
2022-12-23T21:11:10.445Z,13.98
2022-12-23T21:13:38.091Z,15.23
2022-12-23T21:16:06.553Z,12.80
2022-12-23T21:18:33.145Z,14.13
2022-12-23T21:21:04.090Z,12.80
2022-12-23T21:23:31.259Z,13.65
2022-12-23T21:26:14.980Z,16.70
2022-12-23T21:28:43.089Z,11.02
2022-12-23T21:31:10.376Z,11.63
2022-12-23T21:33:38.973Z,11.35
2022-12-23T21:36:06.476Z,10.35
2022-12-23T21:38:34.922Z,12.50
2022-12-23T21:41:07.536Z,13.65
2022-12-23T21:43:34.196Z,13.20
2022-12-23T21:46:03.424Z,11.75
2022-12-23T21:48:30.967Z,12.02
2022-12-23T21:51:08.230Z,11.60
2022-12-23T21:53:35.821Z,11.95
2022-12-23T21:56:04.481Z,11.32
2022-12-23T21:58:31.417Z,10.25
2022-12-23T22:00:58.651Z,11.07
2022-12-23T22:03:26.044Z,12.48
2022-12-23T22:05:53.111Z,11.60
2022-12-23T22:08:19.660Z,10.88
2022-12-23T22:10:47.242Z,12.35
2022-12-23T22:13:13.782Z,12.20
2022-12-23T22:15:42.081Z,11.05
2022-12-23T22:18:08.681Z,11.50
2022-12-23T22:20:42.559Z,11.77
2022-12-23T22:23:12.532Z,11.02
2022-12-23T22:25:39.120Z,11.48
2022-12-23T22:28:05.663Z,12.18
2022-12-23T22:30:32.255Z,11.13
2022-12-23T22:32:58.886Z,12.15
2022-12-23T22:35:27.858Z,12.98
2022-12-23T22:37:54.511Z,14.13
2022-12-23T22:40:21.061Z,12.27
2022-12-23T22:42:47.624Z,12.60
2022-12-23T22:45:14.201Z,12.38
2022-12-23T22:47:40.803Z,13.20
2022-12-23T22:50:08.084Z,12.63
2022-12-23T22:52:34.625Z,13.07
2022-12-23T22:55:01.148Z,13.10
2022-12-23T22:57:27.649Z,14.70
2022-12-23T22:59:54.239Z,13.80
2022-12-23T23:02:20.856Z,16.25
2022-12-23T23:04:47.543Z,15.73
2022-12-23T23:07:14.122Z,14.18
2022-12-23T23:09:40.701Z,14.35
2022-12-23T23:12:07.383Z,14.93
2022-12-23T23:14:52.362Z,13.82
2022-12-23T23:17:24.106Z,19.25
2022-12-23T23:19:51.498Z,18.80
2022-12-23T23:22:19.360Z,18.45
2022-12-23T23:24:45.944Z,19.50
2022-12-23T23:27:12.763Z,17.52
2022-12-23T23:29:39.741Z,17.38
2022-12-23T23:32:07.114Z,14.02
2022-12-23T23:34:33.996Z,15.65
2022-12-23T23:37:01.013Z,12.70
2022-12-23T23:39:27.528Z,15.50
2022-12-23T23:41:54.137Z,14.93
2022-12-23T23:44:20.694Z,14.82
2022-12-23T23:46:47.838Z,16.23
2022-12-23T23:49:14.558Z,15.57
2022-12-23T23:51:43.994Z,14.52
2022-12-23T23:54:10.678Z,15.80
2022-12-23T23:56:39.061Z,15.45
2022-12-23T23:59:06.543Z,15.25
